Independence, Michigan
Current Conditions -  °F | °C
As of 9:53 AM on Monday 24 Nov 2014 (Local Time) from KPTK Reporting Station
Light Rain Light Rain  
Wind Chill: 55°   Ceiling: 1700
Heat Index: 55°   Visibility: 10mi
Dew Point: 50°   Wind: 12mph
Humidity: 83%   Direction: 190°S
Pressure: 29.1"   Gusts: 20mph
Location:  42.7676°N, 83.4033°W
Report Text: KPTK 241453Z 19010G17KT 10SM -RA BKN017 OVC065 13/10 A2910 RMK AO2 RAB52 SLP853 P0000 60001 T01280100 58004
Loading
Personal Weather Stations






























Interactive Weather Map New forecast layout! Learn more

10-Day Weather Forecast

Advertisements
Track Severe Weather on mobile